Time;durP1;ratioP1;P1;durP2;ratioP2;P2;SDS_P1;SDS_P2;PMS_P1;PMS_P2;Temp;Humidity;BMP_temperature;BMP_pressure;BME280_temperature;BME280_humidity;BME280_pressure;Samples;Min_cycle;Max_cycle;Signal;HPM_P1;HPM_P2
2022/06/10 00:00:34;;;;;;;9.50;8.70;;;;;;;15.75;87.38;99215.19;433660;1269;141766;-57
2022/06/10 00:10:37;;;;;;;8.80;7.30;;;;;;;15.73;87.44;99227.05;432167;1268;143427;-57
2022/06/10 00:20:41;;;;;;;8.60;7.20;;;;;;;15.66;87.50;99224.26;432474;1268;145283;-57
2022/06/10 00:30:44;;;;;;;7.90;6.80;;;;;;;15.62;87.63;99244.77;433041;1270;141854;-57
2022/06/10 00:40:54;;;;;;;11.50;8.20;;;;;;;15.59;87.92;99262.83;431789;1270;143235;-58
2022/06/10 00:50:58;;;;;;;8.40;7.70;;;;;;;15.57;88.21;99273.11;432452;1270;143835;-57
2022/06/10 01:01:03;;;;;;;9.20;8.20;;;;;;;15.53;88.37;99272.91;432381;1270;141541;-56
2022/06/10 01:11:25;;;;;;;8.50;7.60;;;;;;;15.48;88.41;99270.04;432691;1269;142680;-59
2022/06/10 01:22:02;;;;;;;7.50;6.80;;;;;;;15.42;88.46;99269.33;433576;1270;143172;-58
2022/06/10 01:32:12;;;;;;;14.00;9.20;;;;;;;15.38;88.60;99276.88;430711;1270;142711;-57
2022/06/10 01:42:25;;;;;;;10.70;9.50;;;;;;;15.27;88.81;99276.97;435730;1269;147156;-57
2022/06/10 01:52:34;;;;;;;13.60;10.10;;;;;;;15.25;89.17;99283.63;432984;1270;141968;-57
2022/06/10 02:02:41;;;;;;;12.10;10.90;;;;;;;15.21;89.25;99289.88;430940;1270;147949;-57
2022/06/10 02:12:49;;;;;;;12.00;10.80;;;;;;;15.17;89.37;99303.59;432748;1270;146285;-57
2022/06/10 02:22:55;;;;;;;11.20;10.10;;;;;;;15.09;89.55;99308.17;433266;1270;142285;-57
2022/06/10 02:32:59;;;;;;;11.00;9.90;;;;;;;15.08;89.76;99313.73;431102;1270;143126;-57
2022/06/10 02:43:11;;;;;;;9.20;8.00;;;;;;;15.08;89.83;99329.06;432001;1270;142829;-57
2022/06/10 02:53:15;;;;;;;9.80;8.60;;;;;;;15.10;89.95;99337.11;433138;1270;142506;-58
2022/06/10 03:03:40;;;;;;;9.20;8.20;;;;;;;15.13;89.94;99350.14;431813;1270;142265;-58
2022/06/10 03:13:59;;;;;;;10.00;8.00;;;;;;;15.26;90.05;99355.36;433376;1269;143050;-57
2022/06/10 03:24:11;;;;;;;9.80;8.80;;;;;;;15.50;89.84;99360.80;430448;1270;143110;-57
2022/06/10 03:34:19;;;;;;;8.50;7.80;;;;;;;15.76;89.58;99373.87;433856;1271;147245;-57
2022/06/10 03:44:22;;;;;;;;;;;;;;;16.22;89.17;99389.59;433311;1271;142777;-57
2022/06/10 03:54:25;;;;;;;7.50;6.80;;;;;;;16.66;88.15;99401.55;432793;1270;134069;-58
2022/06/10 04:04:28;;;;;;;10.30;7.50;;;;;;;16.89;86.94;99416.08;431074;1271;142402;-58
2022/06/10 04:14:32;;;;;;;8.30;7.50;;;;;;;16.91;86.18;99429.61;432030;1270;141522;-59
2022/06/10 04:24:35;;;;;;;9.20;7.60;;;;;;;16.70;86.18;99438.30;431191;1271;141704;-57
2022/06/10 04:34:38;;;;;;;7.60;6.90;;;;;;;16.71;86.34;99458.36;431445;1271;142226;-59
2022/06/10 04:44:41;;;;;;;6.90;5.90;;;;;;;16.79;86.36;99468.53;431675;1270;145613;-58
2022/06/10 04:54:44;;;;;;;8.40;7.30;;;;;;;17.22;86.18;99478.60;431788;1271;142256;-58
2022/06/10 05:04:47;;;;;;;5.90;5.40;;;;;;;17.94;85.06;99482.12;430578;1270;163929;-56
2022/06/10 05:14:50;;;;;;;7.70;6.90;;;;;;;18.22;83.98;99492.69;436547;1270;142348;-57
2022/06/10 05:24:53;;;;;;;7.30;6.30;;;;;;;18.26;83.19;99505.80;431371;1270;142526;-58
2022/06/10 05:34:56;;;;;;;6.40;5.90;;;;;;;18.32;82.74;99516.40;432262;1270;142665;-57
2022/06/10 05:45:00;;;;;;;6.40;5.80;;;;;;;18.13;82.36;99531.48;431113;1270;140733;-66
2022/06/10 05:55:08;;;;;;;7.70;7.00;;;;;;;18.32;82.44;99540.30;430805;1270;141849;-63
2022/06/10 06:05:12;;;;;;;7.20;6.50;;;;;;;18.54;81.54;99555.98;430974;1270;141710;-61
2022/06/10 06:15:16;;;;;;;5.60;5.20;;;;;;;18.44;81.17;99565.77;432181;1270;142090;-63
2022/06/10 06:25:19;;;;;;;6.00;5.40;;;;;;;18.33;80.92;99581.86;433168;1270;142380;-60
2022/06/10 06:35:23;;;;;;;6.00;5.60;;;;;;;18.06;80.97;99592.23;430726;1270;141284;-57
2022/06/10 06:45:26;;;;;;;7.00;6.40;;;;;;;17.90;81.47;99600.55;433514;1270;142852;-58
2022/06/10 06:55:39;;;;;;;8.20;7.40;;;;;;;17.82;81.80;99614.78;431432;1270;142580;-61
2022/06/10 07:05:43;;;;;;;8.90;8.20;;;;;;;17.96;81.83;99624.13;430095;1270;142296;-60
2022/06/10 07:15:46;;;;;;;10.40;9.30;;;;;;;18.38;81.74;99633.30;430884;1270;142560;-60
2022/06/10 07:25:49;;;;;;;9.40;8.60;;;;;;;18.77;80.60;99639.47;430443;1270;144369;-61
2022/06/10 07:35:52;;;;;;;10.00;9.00;;;;;;;18.91;79.96;99648.54;430601;1270;143053;-60
2022/06/10 07:45:56;;;;;;;13.40;12.30;;;;;;;19.30;79.09;99653.31;432216;1270;201387;-64
2022/06/10 07:56:00;;;;;;;13.80;12.70;;;;;;;19.51;78.30;99667.69;432025;1270;188849;-67
2022/06/10 08:06:24;;;;;;;12.00;11.00;;;;;;;19.32;77.94;99683.09;433898;1270;143581;-70
2022/06/10 08:16:46;;;;;;;11.90;10.60;;;;;;;18.58;77.52;99696.88;433096;1270;142932;-66
2022/06/10 08:27:08;;;;;;;11.70;10.50;;;;;;;18.20;78.05;99708.86;430761;1270;246887;-71
2022/06/10 08:37:31;;;;;;;14.80;13.40;;;;;;;17.93;77.82;99729.58;432015;1270;141797;-68
2022/06/10 08:48:02;;;;;;;12.30;11.10;;;;;;;17.52;78.48;99744.29;432773;1269;143512;-75
2022/06/10 08:58:29;;;;;;;12.40;11.30;;;;;;;17.19;78.94;99752.84;447814;1268;142939;-69
2022/06/10 09:08:55;;;;;;;12.60;11.30;;;;;;;17.02;79.80;99759.13;439936;1269;143860;-69
2022/06/10 09:19:26;;;;;;;12.60;11.50;;;;;;;17.21;79.49;99772.46;447813;1268;142937;-60
2022/06/10 09:29:48;;;;;;;10.10;8.50;;;;;;;17.34;79.21;99783.00;443220;1270;142600;-61
2022/06/10 09:51:05;;;;;;;9.50;8.60;;;;;;;17.38;78.59;99811.14;434044;1270;143429;-76
2022/06/10 10:01:35;;;;;;;10.40;9.40;;;;;;;17.39;78.76;99815.36;436923;1270;144333;-73
2022/06/10 10:12:13;;;;;;;9.90;9.00;;;;;;;17.15;78.94;99813.88;434990;1270;142462;-73
2022/06/10 10:22:57;;;;;;;;;;;;;;;17.58;78.92;99823.20;432464;1270;142035;-67
2022/06/10 10:33:19;;;;;;;7.80;7.20;;;;;;;18.37;77.44;99824.41;431610;1270;128396;-60
2022/06/10 10:43:45;;;;;;;9.00;7.60;;;;;;;18.97;76.32;99825.95;433161;1269;142347;-67
2022/06/10 10:54:18;;;;;;;6.40;5.70;;;;;;;20.15;74.38;99830.48;432020;1268;142334;-61
2022/06/10 11:04:40;;;;;;;11.20;6.60;;;;;;;20.86;72.38;99832.93;431363;1270;141464;-67
2022/06/10 11:15:06;;;;;;;7.40;6.60;;;;;;;21.13;70.84;99831.79;433182;1270;142684;-70
2022/06/10 11:25:29;;;;;;;8.80;6.50;;;;;;;21.11;70.22;99827.73;432295;1270;142874;-59
2022/06/10 11:36:07;;;;;;;7.90;5.70;;;;;;;21.06;69.45;99825.74;432215;1270;141760;-57
2022/06/10 11:46:35;;;;;;;5.50;4.80;;;;;;;21.37;68.59;99828.27;431756;1270;142509;-64
2022/06/10 12:07:48;;;;;;;5.90;5.50;;;;;;;22.36;66.41;99833.26;431942;1270;140847;-58
2022/06/10 12:18:12;;;;;;;7.00;5.50;;;;;;;22.53;65.20;99829.98;431880;1269;142373;-56
2022/06/10 12:28:40;;;;;;;5.50;5.00;;;;;;;22.48;64.43;99827.00;431193;1270;145470;-57
2022/06/10 12:39:03;;;;;;;6.70;5.30;;;;;;;22.15;63.65;99817.03;437359;1269;144381;-57
2022/06/10 12:49:32;;;;;;;5.30;4.00;;;;;;;21.96;64.11;99819.27;431980;1270;143252;-58
2022/06/10 13:00:38;;;;;;;4.70;4.40;;;;;;;22.47;63.18;99815.50;432195;1270;142223;-58
2022/06/10 13:11:00;;;;;;;4.60;4.00;;;;;;;22.92;61.89;99816.95;431722;1270;143433;-58
2022/06/10 13:21:29;;;;;;;4.30;3.40;;;;;;;22.58;61.68;99822.22;431899;1270;143197;-59
2022/06/10 13:31:53;;;;;;;7.20;3.00;;;;;;;22.46;61.23;99824.23;431347;1269;147270;-59
2022/06/10 13:42:21;;;;;;;6.20;3.50;;;;;;;22.57;61.02;99831.58;432438;1270;147538;-58
2022/06/10 13:52:49;;;;;;;10.20;3.20;;;;;;;22.47;60.27;99841.05;432618;1270;142550;-59
2022/06/10 14:03:37;;;;;;;3.70;2.70;;;;;;;22.54;60.08;99843.32;431178;1270;142909;-57
2022/06/10 14:14:02;;;;;;;6.60;2.30;;;;;;;22.72;59.81;99847.08;430912;1269;141488;-60
2022/06/10 14:24:30;;;;;;;2.10;1.40;;;;;;;22.89;58.77;99843.73;433638;1269;141658;-58
2022/06/10 14:34:53;;;;;;;2.30;1.80;;;;;;;22.55;57.55;99831.02;436030;1268;142999;-56
2022/06/10 14:45:32;;;;;;;4.50;1.90;;;;;;;22.57;57.40;99832.25;433751;1269;140926;-58
2022/06/10 14:55:52;;;;;;;;;;;;;;;22.82;56.89;99829.16;436154;1270;141021;-67
2022/06/10 15:06:22;;;;;;;2.60;1.40;;;;;;;22.71;56.77;99818.40;433036;1270;127230;-58
2022/06/10 15:16:45;;;;;;;1.40;1.30;;;;;;;22.38;56.99;99824.02;435764;1269;143043;-58
2022/06/10 15:27:27;;;;;;;3.00;1.90;;;;;;;22.26;56.89;99820.27;446044;1269;141528;-58
2022/06/10 15:48:28;;;;;;;5.40;1.50;;;;;;;22.19;56.13;99826.73;447338;1269;141766;-58
2022/06/10 15:58:49;;;;;;;2.30;1.90;;;;;;;22.06;56.39;99828.73;435932;1269;145704;-58
2022/06/10 16:09:11;;;;;;;4.00;1.50;;;;;;;21.74;56.61;99835.67;438949;1270;142539;-59
2022/06/10 16:19:33;;;;;;;4.80;1.50;;;;;;;21.31;57.20;99849.47;446423;1269;144818;-59
2022/06/10 16:29:58;;;;;;;3.00;1.00;;;;;;;21.32;57.07;99848.96;444615;1269;141223;-58
2022/06/10 16:40:21;;;;;;;4.20;1.50;;;;;;;21.60;56.79;99851.73;436585;1269;141008;-58
2022/06/10 16:50:43;;;;;;;3.40;2.00;;;;;;;21.75;56.03;99854.45;432096;1270;141617;-58
2022/06/10 17:01:07;;;;;;;3.20;1.50;;;;;;;21.51;55.59;99864.09;431222;1270;142754;-57
2022/06/10 17:11:34;;;;;;;3.90;1.50;;;;;;;21.07;56.30;99864.73;430858;1270;142186;-59
2022/06/10 17:21:57;;;;;;;7.40;1.50;;;;;;;20.71;56.69;99873.27;430768;1270;144690;-56
2022/06/10 17:32:23;;;;;;;2.40;1.70;;;;;;;20.51;57.39;99875.09;431157;1269;142063;-56
2022/06/10 17:42:48;;;;;;;6.90;2.00;;;;;;;20.27;57.62;99875.45;432595;1270;142092;-55
2022/06/10 17:53:10;;;;;;;4.40;1.90;;;;;;;20.15;58.16;99874.19;430920;1270;142084;-56
2022/06/10 18:03:32;;;;;;;6.60;2.10;;;;;;;20.32;57.95;99874.13;430636;1270;142455;-59
2022/06/10 18:24:38;;;;;;;2.20;1.70;;;;;;;19.25;59.17;99897.25;432163;1270;140880;-58
2022/06/10 18:35:25;;;;;;;2.40;1.60;;;;;;;18.89;59.94;99910.14;429501;1270;141953;-54
2022/06/10 18:46:17;;;;;;;3.70;1.60;;;;;;;18.54;60.33;99927.91;430868;1270;141735;-53
2022/06/10 18:56:44;;;;;;;9.00;2.80;;;;;;;18.23;61.18;99943.11;434715;1269;142353;-54
2022/06/10 19:07:06;;;;;;;10.20;3.60;;;;;;;17.93;61.87;99957.13;431595;1270;142736;-55
2022/06/10 19:17:31;;;;;;;5.90;2.40;;;;;;;17.63;62.67;99959.58;431624;1270;147847;-52
2022/06/10 19:27:55;;;;;;;3.50;2.50;;;;;;;17.35;63.48;99965.14;434417;1269;146029;-54
2022/06/10 19:38:19;;;;;;;3.40;2.60;;;;;;;17.09;64.05;99981.50;430433;1270;146635;-53
2022/06/10 19:48:41;;;;;;;7.00;3.10;;;;;;;16.85;64.71;99992.01;431865;1270;146565;-56
2022/06/10 19:59:05;;;;;;;6.60;3.20;;;;;;;16.66;65.62;99997.27;430518;1271;142733;-52
2022/06/10 20:09:29;;;;;;;4.80;3.00;;;;;;;16.55;66.17;100008.42;432683;1270;141912;-54
2022/06/10 20:19:53;;;;;;;4.00;2.70;;;;;;;16.47;66.59;100015.45;430985;1271;143251;-55
2022/06/10 20:30:15;;;;;;;5.40;2.80;;;;;;;16.39;67.02;100018.95;430945;1271;338094;-53
2022/06/10 20:40:37;;;;;;;3.10;2.60;;;;;;;16.29;67.28;100016.18;432559;1271;142857;-52
2022/06/10 20:51:07;;;;;;;7.30;4.20;;;;;;;16.17;67.93;100007.62;431160;1270;143577;-54
2022/06/10 21:01:34;;;;;;;4.10;3.60;;;;;;;16.01;68.67;100003.38;431556;1270;144117;-56
2022/06/10 21:11:56;;;;;;;7.60;5.40;;;;;;;15.73;69.55;99999.60;431236;1271;145987;-53
2022/06/10 21:22:22;;;;;;;6.10;4.10;;;;;;;15.48;70.17;99998.01;431558;1271;146922;-56
2022/06/10 21:32:45;;;;;;;10.30;5.60;;;;;;;15.15;71.10;99993.70;431936;1271;142219;-55
2022/06/10 21:53:50;;;;;;;9.90;4.30;;;;;;;14.59;72.44;99987.58;431314;1270;142742;-53
2022/06/10 22:04:17;;;;;;;7.50;4.70;;;;;;;14.28;73.25;99991.28;432120;1271;143364;-52
2022/06/10 22:14:38;;;;;;;14.40;4.90;;;;;;;14.11;73.68;99997.77;429769;1271;142132;-52
2022/06/10 22:25:06;;;;;;;6.80;3.60;;;;;;;13.83;74.32;100001.36;430878;1271;146616;-52
2022/06/10 22:35:33;;;;;;;6.00;4.70;;;;;;;13.59;74.52;100000.20;431798;1271;142418;-50
2022/06/10 22:45:58;;;;;;;7.00;3.80;;;;;;;13.36;74.89;100003.00;430955;1271;143381;-53
2022/06/10 22:56:22;;;;;;;3.50;3.20;;;;;;;13.49;74.84;99998.27;430862;1271;145886;-51
2022/06/10 23:06:44;;;;;;;4.70;4.20;;;;;;;13.60;74.67;100001.34;431572;1270;145863;-54
2022/06/10 23:17:25;;;;;;;10.80;4.90;;;;;;;13.56;74.65;99995.13;432526;1269;142063;-53
2022/06/10 23:27:48;;;;;;;6.30;5.10;;;;;;;13.44;74.78;100000.32;430691;1270;144137;-51
2022/06/10 23:38:16;;;;;;;5.70;4.20;;;;;;;13.25;75.24;99994.25;431625;1270;144265;-54
2022/06/10 23:59:21;;;;;;;4.50;3.80;;;;;;;12.71;76.09;100010.34;431435;1270;143282;-50
